createdAt,value
2024-05-09T00:00:29.600Z,1.92
2024-05-09T00:01:34.065Z,1.88
2024-05-09T00:02:36.597Z,1.77
2024-05-09T00:03:41.694Z,1.70
2024-05-09T00:04:44.689Z,1.80
2024-05-09T00:05:47.362Z,2.10
2024-05-09T00:06:49.854Z,2.28
2024-05-09T00:07:52.286Z,2.00
2024-05-09T00:08:54.943Z,2.03
2024-05-09T00:09:57.445Z,2.42
2024-05-09T00:11:00.030Z,2.40
2024-05-09T00:12:02.539Z,2.08
2024-05-09T00:13:05.964Z,2.35
2024-05-09T00:14:08.581Z,2.10
2024-05-09T00:15:11.567Z,1.85
2024-05-09T00:16:14.353Z,1.67
2024-05-09T00:17:17.126Z,2.10
2024-05-09T00:18:19.951Z,1.95
2024-05-09T00:19:22.934Z,2.13
2024-05-09T00:20:33.587Z,1.80
2024-05-09T00:21:44.216Z,1.98
2024-05-09T00:22:46.617Z,2.45
2024-05-09T00:23:49.340Z,1.83
2024-05-09T00:24:51.727Z,2.03
2024-05-09T00:25:54.127Z,2.80
2024-05-09T00:26:56.541Z,2.35
2024-05-09T00:27:59.044Z,2.28
2024-05-09T00:29:01.857Z,2.30
2024-05-09T00:30:07.064Z,2.15
2024-05-09T00:31:09.775Z,2.70
2024-05-09T00:32:12.561Z,2.78
2024-05-09T00:33:15.255Z,3.08
2024-05-09T00:34:17.890Z,2.75
2024-05-09T00:35:20.508Z,2.20
2024-05-09T00:36:22.955Z,3.40
2024-05-09T00:37:25.445Z,2.28
2024-05-09T00:38:27.855Z,2.30
2024-05-09T00:39:30.432Z,2.80
2024-05-09T00:40:40.636Z,2.10
2024-05-09T00:41:45.008Z,2.80
2024-05-09T00:42:47.777Z,2.50
2024-05-09T00:43:50.580Z,2.40
2024-05-09T00:44:53.222Z,2.97
2024-05-09T00:45:57.598Z,2.40
2024-05-09T00:47:00.367Z,2.50
2024-05-09T00:48:21.736Z,2.20
2024-05-09T00:49:24.921Z,2.30
2024-05-09T00:50:35.542Z,2.40
2024-05-09T00:51:43.315Z,2.30
2024-05-09T00:52:47.345Z,3.03
2024-05-09T00:53:49.993Z,2.55
2024-05-09T00:54:52.944Z,2.45
2024-05-09T00:55:56.369Z,2.28
2024-05-09T00:56:59.128Z,2.33
2024-05-09T00:58:02.362Z,2.47
2024-05-09T00:59:04.844Z,2.20
2024-05-09T01:00:22.357Z,2.13
2024-05-09T01:01:33.172Z,2.45
2024-05-09T01:02:36.058Z,2.28
2024-05-09T01:03:38.960Z,2.30
2024-05-09T01:04:41.751Z,2.30
2024-05-09T01:05:45.081Z,1.85
2024-05-09T01:06:48.222Z,2.05
2024-05-09T01:07:50.895Z,1.90
2024-05-09T01:08:53.514Z,2.08
2024-05-09T01:09:56.315Z,2.08
2024-05-09T01:10:59.259Z,2.00
2024-05-09T01:12:01.777Z,2.25
2024-05-09T01:13:05.246Z,2.55
2024-05-09T01:14:08.107Z,1.85
2024-05-09T01:15:10.586Z,2.35
2024-05-09T01:16:13.813Z,2.30
2024-05-09T01:17:16.807Z,2.60
2024-05-09T01:18:19.564Z,2.72
2024-05-09T01:19:29.486Z,2.80
2024-05-09T01:20:40.847Z,2.20
2024-05-09T01:21:46.316Z,2.70
2024-05-09T01:22:49.082Z,2.40
2024-05-09T01:23:51.473Z,2.35
2024-05-09T01:24:53.771Z,2.25
2024-05-09T01:25:56.403Z,2.13
2024-05-09T01:26:58.678Z,2.95
2024-05-09T01:28:01.338Z,2.45
2024-05-09T01:29:04.380Z,2.25
2024-05-09T01:30:09.606Z,2.42
2024-05-09T01:31:16.975Z,2.42
2024-05-09T01:32:19.556Z,2.13
2024-05-09T01:33:22.703Z,2.40
2024-05-09T01:34:26.669Z,2.60
2024-05-09T01:35:29.286Z,2.30
2024-05-09T01:36:32.300Z,2.08
2024-05-09T01:37:34.718Z,2.17
2024-05-09T01:38:37.393Z,2.05
2024-05-09T01:39:39.957Z,2.38
2024-05-09T01:40:43.607Z,2.00
2024-05-09T01:41:46.087Z,2.10
2024-05-09T01:42:48.522Z,2.28
2024-05-09T01:43:50.869Z,2.05
2024-05-09T01:44:53.195Z,2.47
2024-05-09T01:45:55.649Z,2.15
2024-05-09T01:46:58.552Z,2.33
2024-05-09T01:48:01.761Z,1.90
2024-05-09T01:49:04.808Z,3.13
2024-05-09T01:50:10.705Z,2.28
2024-05-09T01:51:13.746Z,2.50
2024-05-09T01:52:16.091Z,2.70
2024-05-09T01:53:18.533Z,3.05
2024-05-09T01:54:20.858Z,2.17
2024-05-09T01:55:23.159Z,2.65
2024-05-09T01:56:27.252Z,2.20
2024-05-09T01:57:30.485Z,2.47
2024-05-09T01:58:32.819Z,3.03
2024-05-09T01:59:35.212Z,2.53
2024-05-09T02:00:41.166Z,2.92
2024-05-09T02:01:56.408Z,2.55
2024-05-09T02:03:00.212Z,2.88
2024-05-09T02:04:02.990Z,2.45
2024-05-09T02:05:06.401Z,2.35
2024-05-09T02:06:08.952Z,2.58
2024-05-09T02:07:11.290Z,2.63
2024-05-09T02:08:15.475Z,2.63
2024-05-09T02:09:18.167Z,3.20
2024-05-09T02:10:26.214Z,2.50
2024-05-09T02:11:41.131Z,2.70
2024-05-09T02:12:43.610Z,2.45
2024-05-09T02:13:46.043Z,2.70
2024-05-09T02:14:48.393Z,2.30
2024-05-09T02:15:52.558Z,3.13
2024-05-09T02:16:54.917Z,2.63
2024-05-09T02:17:57.464Z,2.60
2024-05-09T02:19:00.117Z,2.15
2024-05-09T02:20:02.762Z,2.90
2024-05-09T02:21:05.593Z,2.40
2024-05-09T02:22:08.043Z,2.20
2024-05-09T02:23:10.617Z,2.75
2024-05-09T02:24:13.041Z,2.63
2024-05-09T02:25:15.493Z,2.53
2024-05-09T02:26:18.219Z,2.80
2024-05-09T02:27:20.622Z,2.70
2024-05-09T02:28:23.037Z,2.35
2024-05-09T02:29:25.668Z,2.60
2024-05-09T02:31:33.622Z,2.80
2024-05-09T02:32:36.357Z,2.65
2024-05-09T02:33:39.044Z,2.70
2024-05-09T02:34:41.505Z,2.40
2024-05-09T02:35:44.477Z,2.80
2024-05-09T02:36:46.854Z,2.65
2024-05-09T02:37:49.433Z,2.70
2024-05-09T02:38:51.894Z,2.20
2024-05-09T02:39:54.297Z,3.10
2024-05-09T02:40:56.667Z,2.75
2024-05-09T02:41:59.129Z,2.63
2024-05-09T02:43:01.503Z,2.28
2024-05-09T02:44:03.912Z,2.67
2024-05-09T02:45:07.089Z,2.95
2024-05-09T02:46:09.411Z,2.50
2024-05-09T02:47:12.109Z,2.60
2024-05-09T02:48:14.582Z,2.78
2024-05-09T02:49:17.422Z,2.63
2024-05-09T02:50:29.055Z,2.88
2024-05-09T02:51:36.799Z,2.58
2024-05-09T02:52:39.045Z,2.70
2024-05-09T02:53:41.463Z,2.90
2024-05-09T02:54:43.990Z,2.42
2024-05-09T02:55:46.767Z,2.10
2024-05-09T02:56:49.135Z,2.80
2024-05-09T02:57:51.450Z,2.65
2024-05-09T02:58:54.126Z,2.55
2024-05-09T02:59:56.801Z,2.72
2024-05-09T03:00:59.393Z,2.33
2024-05-09T03:02:02.070Z,2.67
2024-05-09T03:03:05.518Z,2.95
2024-05-09T03:04:08.149Z,3.03
2024-05-09T03:05:11.494Z,2.33
2024-05-09T03:06:14.097Z,2.70
2024-05-09T03:07:17.854Z,3.30
2024-05-09T03:08:21.793Z,2.33
2024-05-09T03:09:24.706Z,2.75
2024-05-09T03:10:29.172Z,2.78
2024-05-09T03:11:37.467Z,2.05
2024-05-09T03:12:40.552Z,2.78
2024-05-09T03:13:42.908Z,2.70
2024-05-09T03:14:45.440Z,2.95
2024-05-09T03:15:47.847Z,2.67
2024-05-09T03:16:50.265Z,2.97
2024-05-09T03:17:53.068Z,2.85
2024-05-09T03:18:55.520Z,2.70
2024-05-09T03:19:58.797Z,2.85
2024-05-09T03:21:01.529Z,2.95
2024-05-09T03:22:03.988Z,3.33
2024-05-09T03:23:09.336Z,2.80
2024-05-09T03:24:12.578Z,2.50
2024-05-09T03:25:14.866Z,2.72
2024-05-09T03:26:18.456Z,2.65
2024-05-09T03:27:20.757Z,3.30
2024-05-09T03:28:23.166Z,2.92
2024-05-09T03:29:26.192Z,2.60
2024-05-09T03:30:39.110Z,3.20
2024-05-09T03:31:44.740Z,3.28
2024-05-09T03:32:47.298Z,2.72
2024-05-09T03:33:50.146Z,2.58
2024-05-09T03:34:52.557Z,2.65
2024-05-09T03:35:54.915Z,3.25
2024-05-09T03:36:57.359Z,3.33
2024-05-09T03:37:59.984Z,3.17
2024-05-09T03:39:02.490Z,2.97
2024-05-09T03:40:11.665Z,2.47
2024-05-09T03:41:19.562Z,3.05
2024-05-09T03:42:22.179Z,2.72
2024-05-09T03:43:24.353Z,2.95
2024-05-09T03:44:26.952Z,2.72
2024-05-09T03:45:29.339Z,3.17
2024-05-09T03:46:31.591Z,3.10
2024-05-09T03:47:35.988Z,2.78
2024-05-09T03:48:38.503Z,3.17
2024-05-09T03:49:41.182Z,2.80
2024-05-09T03:50:43.642Z,3.30
2024-05-09T03:51:46.967Z,3.10
2024-05-09T03:52:49.612Z,3.03
2024-05-09T03:53:51.989Z,2.70
2024-05-09T03:54:54.341Z,3.05
2024-05-09T03:55:57.665Z,3.00
2024-05-09T03:57:00.207Z,3.20
2024-05-09T03:58:02.729Z,3.25
2024-05-09T03:59:05.221Z,3.33
2024-05-09T04:00:17.682Z,3.15
2024-05-09T04:01:25.710Z,2.75
2024-05-09T04:02:28.180Z,2.72
2024-05-09T04:03:30.891Z,2.33
2024-05-09T04:04:33.542Z,2.80
2024-05-09T04:05:36.941Z,2.55
2024-05-09T04:06:39.230Z,2.97
2024-05-09T04:07:44.694Z,2.53
2024-05-09T04:08:47.140Z,3.00
2024-05-09T04:09:49.616Z,2.42
2024-05-09T04:10:52.327Z,2.53
2024-05-09T04:11:54.940Z,2.72
2024-05-09T04:12:57.404Z,2.78
2024-05-09T04:13:59.957Z,2.50
2024-05-09T04:15:02.969Z,2.33
2024-05-09T04:16:05.858Z,2.25
2024-05-09T04:17:08.204Z,2.55
2024-05-09T04:18:10.793Z,2.40
2024-05-09T04:19:13.471Z,3.08
2024-05-09T04:20:28.260Z,2.30
2024-05-09T04:21:36.968Z,3.13
2024-05-09T04:22:39.713Z,2.78
2024-05-09T04:23:42.354Z,2.47
2024-05-09T04:24:44.733Z,2.63
2024-05-09T04:25:47.141Z,3.15
2024-05-09T04:26:49.455Z,2.47
2024-05-09T04:27:55.942Z,2.58
2024-05-09T04:28:58.336Z,2.70
2024-05-09T04:30:01.143Z,2.63
2024-05-09T04:31:03.782Z,2.70
2024-05-09T04:32:07.048Z,2.55
2024-05-09T04:33:12.256Z,2.55
2024-05-09T04:34:16.648Z,2.50
2024-05-09T04:35:21.188Z,2.33
2024-05-09T04:36:23.810Z,2.67
2024-05-09T04:37:26.524Z,1.95
2024-05-09T04:38:30.398Z,2.63
2024-05-09T04:39:32.743Z,2.58
2024-05-09T04:40:36.958Z,2.72
2024-05-09T04:41:40.753Z,2.53
2024-05-09T04:42:43.095Z,3.03
2024-05-09T04:43:45.455Z,2.72
2024-05-09T04:44:48.498Z,2.35
2024-05-09T04:45:51.201Z,2.35
2024-05-09T04:46:53.579Z,2.95
2024-05-09T04:47:56.055Z,2.42
2024-05-09T04:48:58.749Z,2.60
2024-05-09T04:50:01.065Z,2.03
2024-05-09T04:51:04.255Z,2.45
2024-05-09T04:52:07.021Z,2.88
2024-05-09T04:53:15.075Z,2.35
2024-05-09T04:55:25.652Z,2.88
2024-05-09T04:56:28.089Z,2.35
2024-05-09T04:57:30.934Z,2.10
2024-05-09T04:58:33.342Z,2.45
2024-05-09T04:59:36.714Z,2.60
2024-05-09T05:00:40.506Z,2.70
2024-05-09T05:01:43.456Z,2.42
2024-05-09T05:02:45.873Z,2.45
2024-05-09T05:03:48.373Z,2.53
2024-05-09T05:04:50.992Z,3.15
2024-05-09T05:05:53.434Z,2.47
2024-05-09T05:06:57.754Z,2.45
2024-05-09T05:08:01.679Z,2.63
2024-05-09T05:09:04.127Z,2.65
2024-05-09T05:10:09.343Z,2.70
2024-05-09T05:11:14.268Z,2.50
2024-05-09T05:12:35.558Z,2.50
2024-05-09T05:13:41.402Z,3.17
2024-05-09T05:14:44.289Z,2.17
2024-05-09T05:15:47.773Z,2.65
2024-05-09T05:16:50.504Z,2.90
2024-05-09T05:17:53.290Z,2.30
2024-05-09T05:18:55.784Z,2.45
2024-05-09T05:19:58.812Z,2.15
2024-05-09T05:21:01.664Z,2.55
2024-05-09T05:22:04.539Z,2.10
2024-05-09T05:23:10.923Z,2.35
2024-05-09T05:24:13.373Z,2.55
2024-05-09T05:25:15.942Z,2.67
2024-05-09T05:26:20.651Z,2.47
2024-05-09T05:27:23.101Z,2.25
2024-05-09T05:28:25.513Z,2.55
2024-05-09T05:29:28.023Z,2.75
2024-05-09T05:30:34.538Z,2.35
2024-05-09T05:31:39.288Z,2.67
2024-05-09T05:32:41.973Z,2.75
2024-05-09T05:33:44.661Z,2.60
2024-05-09T05:34:47.123Z,2.30
2024-05-09T05:35:49.662Z,2.22
2024-05-09T05:36:52.141Z,2.67
2024-05-09T05:37:54.802Z,2.65
2024-05-09T05:38:57.267Z,2.30
2024-05-09T05:39:59.713Z,2.92
2024-05-09T05:41:02.268Z,2.30
2024-05-09T05:42:05.013Z,2.35
2024-05-09T05:43:08.922Z,2.28
2024-05-09T05:44:14.464Z,2.72
2024-05-09T05:45:16.824Z,2.55
2024-05-09T05:46:19.231Z,2.35
2024-05-09T05:47:21.690Z,2.50
2024-05-09T05:48:24.453Z,2.40
2024-05-09T05:49:27.289Z,2.25
2024-05-09T05:50:35.535Z,2.60
2024-05-09T05:52:42.536Z,2.22
2024-05-09T05:53:45.057Z,2.58
2024-05-09T05:54:52.056Z,2.03
2024-05-09T05:55:54.569Z,2.47
2024-05-09T05:56:58.914Z,2.83
2024-05-09T05:58:04.445Z,2.08
2024-05-09T05:59:06.997Z,2.90
2024-05-09T06:00:18.088Z,2.20
2024-05-09T06:01:28.014Z,2.17
2024-05-09T06:02:31.099Z,2.35
2024-05-09T06:03:33.357Z,2.05
2024-05-09T06:04:36.485Z,2.22
2024-05-09T06:05:44.408Z,2.53
2024-05-09T06:06:47.035Z,2.28
2024-05-09T06:07:49.378Z,2.03
2024-05-09T06:08:52.593Z,2.25
2024-05-09T06:09:55.818Z,2.05
2024-05-09T06:10:58.301Z,2.17
2024-05-09T06:12:01.143Z,2.38
2024-05-09T06:13:03.736Z,2.10
2024-05-09T06:14:06.461Z,2.13
2024-05-09T06:15:09.256Z,1.90
2024-05-09T06:16:11.628Z,1.92
2024-05-09T06:17:14.205Z,1.80
2024-05-09T06:18:17.237Z,1.83
2024-05-09T06:19:20.103Z,2.33
2024-05-09T06:20:31.574Z,2.20
2024-05-09T06:21:38.307Z,2.13
2024-05-09T06:22:40.760Z,2.00
2024-05-09T06:23:47.519Z,1.70
2024-05-09T06:24:49.874Z,2.28
2024-05-09T06:25:52.637Z,1.88
2024-05-09T06:26:55.525Z,2.20
2024-05-09T06:27:58.182Z,1.75
2024-05-09T06:29:03.430Z,2.15
2024-05-09T06:30:09.935Z,1.70
2024-05-09T06:31:14.505Z,1.85
2024-05-09T06:32:17.191Z,1.48
2024-05-09T06:33:19.718Z,1.77
2024-05-09T06:34:23.248Z,2.25
2024-05-09T06:35:25.792Z,1.50
2024-05-09T06:36:28.343Z,1.77
2024-05-09T06:37:30.883Z,1.55
2024-05-09T06:38:33.478Z,1.67
2024-05-09T06:39:35.883Z,1.80
2024-05-09T06:40:41.648Z,2.35
2024-05-09T06:41:45.570Z,1.45
2024-05-09T06:42:48.108Z,1.30
2024-05-09T06:43:50.534Z,1.85
2024-05-09T06:44:52.926Z,1.95
2024-05-09T06:45:55.439Z,2.30
2024-05-09T06:46:59.975Z,1.77
2024-05-09T06:48:03.207Z,1.88
2024-05-09T06:49:08.993Z,1.67
2024-05-09T06:50:19.730Z,1.83
2024-05-09T06:51:25.972Z,1.90
2024-05-09T06:52:28.355Z,1.77
2024-05-09T06:53:30.960Z,1.25
2024-05-09T06:54:33.444Z,1.80
2024-05-09T06:55:37.295Z,1.80
2024-05-09T06:56:40.111Z,1.40
2024-05-09T06:57:43.267Z,1.33
2024-05-09T06:58:46.079Z,1.52
2024-05-09T06:59:48.528Z,1.60
2024-05-09T07:00:51.210Z,1.20
2024-05-09T07:01:53.872Z,1.33
2024-05-09T07:02:56.624Z,1.20
2024-05-09T07:03:59.203Z,1.25
2024-05-09T07:05:01.920Z,1.25
2024-05-09T07:06:04.560Z,2.17
2024-05-09T07:07:09.465Z,1.60
2024-05-09T07:08:12.336Z,0.90
2024-05-09T07:09:14.863Z,1.80
2024-05-09T07:10:22.177Z,1.40
2024-05-09T07:11:33.481Z,1.10
2024-05-09T07:12:35.991Z,1.13
2024-05-09T07:13:38.461Z,1.48
2024-05-09T07:14:41.026Z,1.33
2024-05-09T07:15:43.594Z,1.00
2024-05-09T07:16:45.962Z,1.42
2024-05-09T07:17:48.546Z,1.30
2024-05-09T07:18:55.185Z,1.40
2024-05-09T07:19:57.950Z,1.25
2024-05-09T07:21:00.517Z,0.75
2024-05-09T07:22:03.084Z,1.02
2024-05-09T07:23:05.770Z,0.98
2024-05-09T07:24:08.365Z,1.08
2024-05-09T07:25:10.766Z,1.13
2024-05-09T07:26:13.198Z,1.33
2024-05-09T07:27:15.569Z,0.98
2024-05-09T07:28:20.305Z,0.75
2024-05-09T07:29:22.799Z,1.30
2024-05-09T07:30:32.704Z,1.13
2024-05-09T07:31:36.797Z,0.90
2024-05-09T07:32:39.413Z,0.93
2024-05-09T07:33:42.474Z,0.90
2024-05-09T07:34:44.990Z,1.30
2024-05-09T07:35:47.911Z,1.15
2024-05-09T07:36:50.675Z,0.93
2024-05-09T07:37:53.206Z,1.00
2024-05-09T07:38:55.603Z,0.80
2024-05-09T07:39:58.150Z,0.85
2024-05-09T07:41:01.314Z,0.98
2024-05-09T07:42:04.282Z,0.90
2024-05-09T07:43:13.331Z,1.20
2024-05-09T07:44:15.819Z,1.15
2024-05-09T07:47:17.224Z,1.00
2024-05-09T07:49:13.056Z,1.17
2024-05-09T07:53:32.300Z,1.00
2024-05-09T07:53:52.208Z,1.90
2024-05-09T07:54:57.670Z,0.73
2024-05-09T07:56:00.595Z,0.90
2024-05-09T07:57:03.399Z,0.70
2024-05-09T07:58:06.210Z,0.68
2024-05-09T07:59:08.727Z,0.95
2024-05-09T08:00:14.373Z,1.05
2024-05-09T08:01:17.238Z,1.30
2024-05-09T08:02:20.235Z,0.80
2024-05-09T08:03:23.485Z,1.00
2024-05-09T08:04:26.764Z,0.85
2024-05-09T08:05:29.534Z,0.70
2024-05-09T08:06:32.589Z,0.85
2024-05-09T08:07:37.244Z,1.00
2024-05-09T08:08:39.769Z,1.23
2024-05-09T08:09:42.311Z,0.73
2024-05-09T08:10:44.947Z,0.80
2024-05-09T08:11:47.333Z,0.90
2024-05-09T08:12:49.804Z,0.88
2024-05-09T08:13:52.305Z,0.77
2024-05-09T08:14:56.444Z,0.88
2024-05-09T08:15:59.302Z,0.75
2024-05-09T08:17:01.945Z,1.00
2024-05-09T08:18:11.151Z,0.77
2024-05-09T08:19:13.685Z,0.80
2024-05-09T08:20:26.459Z,0.85
2024-05-09T08:21:33.211Z,0.80
2024-05-09T08:22:36.341Z,0.80
2024-05-09T08:23:38.893Z,0.70
2024-05-09T08:24:42.950Z,1.00
2024-05-09T08:25:45.634Z,1.00
2024-05-09T08:26:48.086Z,1.15
2024-05-09T08:27:50.560Z,0.90
2024-05-09T08:28:52.984Z,0.65
2024-05-09T08:29:55.367Z,0.75
2024-05-09T08:30:57.920Z,0.80
2024-05-09T08:32:00.457Z,0.88
2024-05-09T08:33:04.969Z,1.48
2024-05-09T08:34:08.036Z,0.98
2024-05-09T08:35:10.753Z,0.93
2024-05-09T08:36:13.314Z,0.90
2024-05-09T08:37:22.115Z,0.90
2024-05-09T08:38:26.809Z,0.90
2024-05-09T08:39:29.473Z,0.70
2024-05-09T08:40:35.860Z,0.57
2024-05-09T08:41:42.654Z,0.77
2024-05-09T08:42:52.815Z,1.08
2024-05-09T08:43:55.329Z,0.80
2024-05-09T08:44:58.133Z,0.85
2024-05-09T08:46:00.977Z,1.30
2024-05-09T08:47:08.616Z,1.05
2024-05-09T08:48:13.921Z,0.95
2024-05-09T08:49:17.773Z,0.98
2024-05-09T08:50:31.653Z,0.75
2024-05-09T08:51:40.571Z,1.00
2024-05-09T08:52:43.318Z,0.70
2024-05-09T08:53:45.691Z,0.80
2024-05-09T08:54:48.211Z,0.60
2024-05-09T08:55:51.907Z,0.80
2024-05-09T08:56:54.283Z,0.77
2024-05-09T08:57:56.701Z,0.77
2024-05-09T08:59:01.514Z,0.80
2024-05-09T09:00:09.993Z,1.20
2024-05-09T09:01:16.788Z,0.70
2024-05-09T09:02:19.738Z,0.70
2024-05-09T09:03:25.349Z,0.90
2024-05-09T09:04:28.503Z,0.90
2024-05-09T09:05:32.060Z,0.82
2024-05-09T09:06:35.345Z,1.20
2024-05-09T09:07:40.972Z,0.77
2024-05-09T09:08:43.784Z,0.80
2024-05-09T09:09:46.777Z,1.30
2024-05-09T09:10:53.150Z,0.57
2024-05-09T09:11:55.527Z,0.75
2024-05-09T09:13:03.668Z,0.65
2024-05-09T09:14:06.326Z,0.98
2024-05-09T09:15:09.065Z,0.70
2024-05-09T09:16:12.983Z,1.02
2024-05-09T09:17:16.621Z,0.73
2024-05-09T09:18:19.498Z,0.90
2024-05-09T09:19:23.415Z,0.70
2024-05-09T09:20:34.074Z,0.60
2024-05-09T09:21:39.365Z,0.90
2024-05-09T09:22:41.856Z,1.10
2024-05-09T09:23:44.267Z,0.82
2024-05-09T09:24:46.838Z,1.00
2024-05-09T09:25:49.819Z,0.90
2024-05-09T09:26:52.297Z,0.90
2024-05-09T09:27:54.823Z,0.70
2024-05-09T09:29:01.151Z,0.75
2024-05-09T09:30:04.496Z,0.77
2024-05-09T09:31:08.160Z,0.65
2024-05-09T09:32:11.530Z,0.65
2024-05-09T09:33:14.235Z,1.23
2024-05-09T09:34:17.802Z,1.60
2024-05-09T09:35:20.924Z,1.38
2024-05-09T09:36:28.384Z,1.20
2024-05-09T09:37:30.847Z,1.55
2024-05-09T09:38:38.405Z,1.17
2024-05-09T09:39:42.245Z,1.08
2024-05-09T09:40:49.758Z,1.10
2024-05-09T09:41:53.102Z,0.90
2024-05-09T09:42:58.415Z,1.75
2024-05-09T09:44:01.424Z,0.90
2024-05-09T09:45:05.692Z,1.00
2024-05-09T09:46:12.295Z,0.65
2024-05-09T09:47:16.047Z,0.82
2024-05-09T09:48:20.306Z,3.45
2024-05-09T09:49:27.367Z,0.88
2024-05-09T09:50:34.429Z,0.80
2024-05-09T09:51:43.685Z,0.90
2024-05-09T09:52:46.453Z,0.85
2024-05-09T09:53:49.753Z,0.98
2024-05-09T09:54:52.430Z,0.68
2024-05-09T09:55:59.375Z,0.60
2024-05-09T09:57:03.896Z,0.70
2024-05-09T09:58:09.669Z,0.60
2024-05-09T09:59:15.915Z,0.70
2024-05-09T10:00:24.465Z,0.60
2024-05-09T10:01:36.498Z,0.82
2024-05-09T10:02:42.620Z,0.88
2024-05-09T10:03:45.771Z,0.60
2024-05-09T10:04:48.473Z,0.60
2024-05-09T10:05:51.265Z,0.65
2024-05-09T10:06:58.920Z,0.80
2024-05-09T10:08:05.513Z,0.80
2024-05-09T10:09:11.977Z,0.90
2024-05-09T10:11:32.814Z,0.68
2024-05-09T10:12:37.407Z,0.70
2024-05-09T10:13:41.603Z,0.80
2024-05-09T10:14:51.460Z,0.95
2024-05-09T10:15:54.664Z,0.80
2024-05-09T10:17:06.441Z,0.80
2024-05-09T10:18:09.086Z,1.73
2024-05-09T10:19:25.150Z,1.20
2024-05-09T10:20:30.930Z,0.80
2024-05-09T10:21:47.219Z,0.70
2024-05-09T10:22:50.620Z,0.60
2024-05-09T10:24:03.325Z,0.70
2024-05-09T10:25:08.778Z,0.60
2024-05-09T10:26:11.632Z,0.80
2024-05-09T10:27:13.958Z,0.80
2024-05-09T10:28:16.428Z,0.70
2024-05-09T10:29:19.908Z,0.50
2024-05-09T10:30:33.431Z,0.68
2024-05-09T10:31:41.247Z,0.60
2024-05-09T10:32:45.305Z,0.50
2024-05-09T10:33:53.057Z,0.90
2024-05-09T10:35:09.067Z,0.60
2024-05-09T10:36:15.229Z,0.73
2024-05-09T10:37:18.202Z,0.80
2024-05-09T10:38:20.655Z,0.57
2024-05-09T10:39:24.672Z,0.93
2024-05-09T10:40:31.347Z,0.68
2024-05-09T10:41:34.633Z,0.70
2024-05-09T10:42:41.607Z,0.88
2024-05-09T10:43:45.012Z,0.70
2024-05-09T10:44:47.791Z,0.80
2024-05-09T10:45:50.440Z,0.73
2024-05-09T10:46:54.994Z,0.95
2024-05-09T10:47:57.771Z,1.00
2024-05-09T10:49:03.334Z,0.85
2024-05-09T10:50:18.001Z,0.80
2024-05-09T10:51:25.183Z,0.70
2024-05-09T10:52:28.142Z,0.70
2024-05-09T10:53:44.422Z,0.60
2024-05-09T10:54:49.801Z,0.50
2024-05-09T10:56:02.594Z,0.68
2024-05-09T10:57:05.809Z,0.50
2024-05-09T10:58:17.962Z,0.55
2024-05-09T10:59:20.629Z,0.75
2024-05-09T11:00:30.255Z,0.73
2024-05-09T11:01:37.089Z,0.50
2024-05-09T11:02:39.765Z,0.70
2024-05-09T11:03:42.944Z,0.85
2024-05-09T11:04:48.635Z,0.52
2024-05-09T11:05:52.353Z,0.50
2024-05-09T11:06:55.575Z,0.65
2024-05-09T11:07:58.170Z,0.65
2024-05-09T11:09:00.640Z,0.60
2024-05-09T11:10:04.931Z,0.40
2024-05-09T11:11:10.772Z,0.88
2024-05-09T11:12:13.278Z,0.50
2024-05-09T11:13:26.899Z,0.70
2024-05-09T11:14:29.461Z,0.57
2024-05-09T11:15:42.017Z,0.52
2024-05-09T11:16:50.034Z,0.90
2024-05-09T11:17:52.816Z,0.47
2024-05-09T11:18:56.911Z,0.80
2024-05-09T11:20:00.610Z,0.70
2024-05-09T11:21:03.126Z,0.80
2024-05-09T11:22:06.128Z,0.60
2024-05-09T11:23:09.042Z,0.88
2024-05-09T11:24:11.840Z,1.10
2024-05-09T11:25:14.515Z,0.90
2024-05-09T11:26:19.520Z,1.20
2024-05-09T11:27:22.250Z,0.88
2024-05-09T11:28:27.198Z,0.82
2024-05-09T11:29:44.712Z,1.17
2024-05-09T11:30:47.830Z,0.85
2024-05-09T11:31:50.424Z,0.80
2024-05-09T11:32:53.447Z,0.52
2024-05-09T11:33:56.189Z,0.60
2024-05-09T11:34:58.922Z,1.00
2024-05-09T11:36:01.236Z,0.90
2024-05-09T11:37:04.808Z,1.15
2024-05-09T11:38:07.361Z,1.00
2024-05-09T11:39:10.648Z,1.05
2024-05-09T11:40:21.179Z,0.93
2024-05-09T11:41:30.596Z,1.50
2024-05-09T11:42:32.933Z,1.40
2024-05-09T11:43:35.955Z,1.00
2024-05-09T11:44:38.836Z,0.80
2024-05-09T11:45:41.179Z,1.20
2024-05-09T11:46:43.996Z,1.10
2024-05-09T11:47:46.428Z,0.85
2024-05-09T11:48:49.143Z,0.95
2024-05-09T11:49:52.195Z,1.20
2024-05-09T11:50:55.758Z,1.10
2024-05-09T11:51:58.139Z,0.98
2024-05-09T11:53:00.521Z,0.90
2024-05-09T11:54:03.042Z,0.88
2024-05-09T11:55:05.713Z,1.13
2024-05-09T11:56:08.279Z,0.90
2024-05-09T11:57:10.678Z,1.10
2024-05-09T11:58:14.862Z,0.95
2024-05-09T11:59:17.263Z,1.00
2024-05-09T12:00:29.149Z,1.10
2024-05-09T12:01:38.563Z,1.50
2024-05-09T12:02:44.317Z,1.05
2024-05-09T12:03:51.811Z,1.13
2024-05-09T12:04:54.704Z,1.08
2024-05-09T12:05:57.474Z,1.20
2024-05-09T12:07:00.130Z,1.27
2024-05-09T12:08:02.812Z,1.05
2024-05-09T12:09:05.213Z,11.55
2024-05-09T12:10:11.855Z,5.63
2024-05-09T12:11:19.223Z,2.05
2024-05-09T12:12:21.692Z,1.98
2024-05-09T12:13:24.134Z,0.90
2024-05-09T12:14:26.625Z,0.80
2024-05-09T12:15:29.051Z,0.90
2024-05-09T12:16:32.072Z,1.15
2024-05-09T12:17:34.564Z,1.33
2024-05-09T12:18:36.980Z,1.20
2024-05-09T12:19:39.747Z,1.20
2024-05-09T12:20:43.251Z,1.00
2024-05-09T12:21:45.767Z,0.70
2024-05-09T12:22:48.374Z,1.17
2024-05-09T12:23:50.704Z,0.90
2024-05-09T12:24:53.541Z,0.93
2024-05-09T12:25:55.932Z,0.95
2024-05-09T12:26:58.334Z,0.90
2024-05-09T12:28:00.989Z,1.00
2024-05-09T12:29:03.387Z,0.90
2024-05-09T12:30:08.964Z,0.93
2024-05-09T12:31:14.167Z,1.00
2024-05-09T12:32:21.653Z,0.95
2024-05-09T12:33:24.169Z,1.00
2024-05-09T12:34:27.228Z,0.95
2024-05-09T12:35:32.926Z,1.20
2024-05-09T12:36:35.845Z,0.98
2024-05-09T12:37:38.754Z,1.10
2024-05-09T12:38:41.539Z,0.80
2024-05-09T12:39:44.060Z,0.65
2024-05-09T12:40:46.562Z,0.73
2024-05-09T12:41:49.192Z,0.80
2024-05-09T12:42:51.742Z,1.20
2024-05-09T12:43:54.325Z,0.93
2024-05-09T12:44:56.883Z,0.70
2024-05-09T12:45:59.752Z,1.10
2024-05-09T12:47:02.177Z,0.90
2024-05-09T12:48:07.675Z,1.05
2024-05-09T12:49:10.808Z,0.80
2024-05-09T12:50:18.724Z,0.80
2024-05-09T12:51:27.652Z,1.00
2024-05-09T12:52:30.127Z,0.95
2024-05-09T12:53:32.633Z,0.80
2024-05-09T12:54:35.007Z,1.38
2024-05-09T12:55:44.918Z,1.00
2024-05-09T12:56:55.348Z,1.05
2024-05-09T12:58:04.627Z,1.02
2024-05-09T12:59:07.491Z,0.82
2024-05-09T13:00:20.221Z,1.00
2024-05-09T13:01:26.531Z,1.13
2024-05-09T13:02:29.182Z,0.85
2024-05-09T13:03:32.133Z,1.20
2024-05-09T13:04:35.582Z,0.82
2024-05-09T13:05:38.331Z,1.08
2024-05-09T13:06:41.273Z,1.15
2024-05-09T13:07:44.136Z,1.15
2024-05-09T13:08:46.586Z,0.70
2024-05-09T13:09:49.188Z,1.02
2024-05-09T13:10:52.461Z,1.08
2024-05-09T13:11:54.999Z,1.60
2024-05-09T13:12:57.391Z,1.30
2024-05-09T13:13:59.886Z,1.77
2024-05-09T13:15:02.965Z,1.13
2024-05-09T13:16:05.989Z,1.00
2024-05-09T13:17:08.676Z,0.77
2024-05-09T13:18:11.137Z,1.00
2024-05-09T13:19:13.643Z,0.88
2024-05-09T13:20:29.380Z,0.80
2024-05-09T13:21:35.394Z,0.98
2024-05-09T13:22:39.152Z,0.90
2024-05-09T13:23:41.937Z,1.00
2024-05-09T13:24:44.443Z,0.73
2024-05-09T13:25:47.529Z,0.98
2024-05-09T13:26:49.941Z,0.95
2024-05-09T13:27:52.420Z,1.13
2024-05-09T13:28:54.786Z,0.88
2024-05-09T13:29:57.533Z,0.77
2024-05-09T13:31:00.192Z,1.00
2024-05-09T13:32:02.657Z,1.05
2024-05-09T13:33:06.339Z,0.90
2024-05-09T13:34:09.439Z,0.90
2024-05-09T13:35:11.969Z,1.13
2024-05-09T13:36:19.861Z,0.85
2024-05-09T13:37:28.661Z,0.80
2024-05-09T13:38:31.159Z,1.00
2024-05-09T13:39:35.246Z,1.00
2024-05-09T13:40:37.794Z,1.17
2024-05-09T13:41:40.171Z,0.85
2024-05-09T13:42:42.576Z,1.35
2024-05-09T13:43:45.085Z,1.00
2024-05-09T13:44:47.680Z,1.30
2024-05-09T13:45:50.415Z,0.75
2024-05-09T13:46:52.846Z,0.90
2024-05-09T13:47:55.383Z,0.90
2024-05-09T13:48:58.266Z,1.00
2024-05-09T13:50:01.967Z,0.95
2024-05-09T13:51:05.690Z,1.00
2024-05-09T13:52:08.386Z,0.90
2024-05-09T13:53:10.880Z,0.80
2024-05-09T13:54:13.368Z,3.30
2024-05-09T13:55:15.915Z,1.70
2024-05-09T13:56:18.422Z,0.80
2024-05-09T13:57:21.210Z,1.05
2024-05-09T13:58:27.554Z,1.00
2024-05-09T13:59:30.704Z,0.98
2024-05-09T14:00:43.892Z,0.80
2024-05-09T14:01:52.715Z,2.33
2024-05-09T14:02:55.962Z,1.00
2024-05-09T14:03:58.851Z,1.30
2024-05-09T14:05:01.580Z,1.08
2024-05-09T14:06:05.037Z,0.90
2024-05-09T14:07:07.614Z,0.70
2024-05-09T14:08:10.183Z,0.70
2024-05-09T14:09:12.663Z,0.77
2024-05-09T14:10:22.930Z,1.00
2024-05-09T14:11:31.250Z,1.10
2024-05-09T14:12:33.653Z,0.98
2024-05-09T14:13:36.073Z,0.75
2024-05-09T14:14:38.391Z,0.82
2024-05-09T14:15:40.851Z,0.70
2024-05-09T14:16:43.331Z,1.05
2024-05-09T14:17:47.275Z,0.95
2024-05-09T14:18:50.621Z,0.47
2024-05-09T14:19:53.088Z,1.10
2024-05-09T14:20:55.546Z,0.80
2024-05-09T14:21:58.054Z,1.00